createdAt,value
2022-09-03T00:02:43.787Z,101538.41
2022-09-03T00:05:24.769Z,101540.28
2022-09-03T00:07:56.524Z,101540.28
2022-09-03T00:10:47.142Z,101535.94
2022-09-03T00:13:26.045Z,101539.69
2022-09-03T00:15:55.797Z,101535.84
2022-09-03T00:18:29.753Z,101534.56
2022-09-03T00:21:08.772Z,101528.59
2022-09-03T00:23:40.856Z,101523.69
2022-09-03T00:26:14.073Z,101531.53
2022-09-03T00:29:03.218Z,101523.69
2022-09-03T00:31:45.413Z,101526.03
2022-09-03T00:34:39.176Z,101531.41
2022-09-03T00:37:08.409Z,101535.66
2022-09-03T00:39:42.914Z,101533.66
2022-09-03T00:42:47.350Z,101540.22
2022-09-03T00:45:39.811Z,101537.19
2022-09-03T00:48:27.949Z,101537.66
2022-09-03T00:51:17.506Z,101527.72
2022-09-03T00:54:02.209Z,101530.63
2022-09-03T00:57:00.547Z,101533.31
2022-09-03T01:00:09.769Z,101527.38
2022-09-03T01:03:01.982Z,101529.47
2022-09-03T01:05:50.667Z,101520.25
2022-09-03T01:08:39.350Z,101518.03
2022-09-03T01:11:23.048Z,101517.69
2022-09-03T01:14:18.270Z,101520.03
2022-09-03T01:17:17.885Z,101519.94
2022-09-03T01:20:18.497Z,101518.53
2022-09-03T01:23:13.432Z,101519.00
2022-09-03T01:26:14.478Z,101523.22
2022-09-03T01:29:07.445Z,101517.03
2022-09-03T01:31:58.951Z,101516.22
2022-09-03T01:35:03.041Z,101511.06
2022-09-03T01:38:12.900Z,101509.91
2022-09-03T01:41:49.803Z,101510.72
2022-09-03T01:44:52.851Z,101512.00
2022-09-03T01:47:39.400Z,101515.75
2022-09-03T01:50:45.358Z,101516.78
2022-09-03T01:54:01.948Z,101510.84
2022-09-03T01:56:59.920Z,101511.06
2022-09-03T01:59:45.216Z,101517.72
2022-09-03T02:02:21.364Z,101504.63
2022-09-03T02:05:09.425Z,101519.56
2022-09-03T02:07:43.207Z,101513.63
2022-09-03T02:10:27.913Z,101514.66
2022-09-03T02:13:05.755Z,101508.72
2022-09-03T02:15:35.758Z,101520.28
2022-09-03T02:18:07.244Z,101518.41
2022-09-03T02:20:34.464Z,101519.69
2022-09-03T02:23:02.409Z,101514.09
2022-09-03T02:25:36.335Z,101518.06
2022-09-03T02:28:05.736Z,101519.69
2022-09-03T02:30:38.458Z,101518.28
2022-09-03T02:33:05.679Z,101521.22
2022-09-03T02:35:32.650Z,101524.47
2022-09-03T02:38:14.349Z,101516.44
2022-09-03T02:40:41.361Z,101511.75
2022-09-03T02:43:19.292Z,101519.00
2022-09-03T02:45:51.257Z,101519.81
2022-09-03T02:48:24.091Z,101518.41
2022-09-03T02:50:51.696Z,101515.97
2022-09-03T02:53:18.930Z,101514.31
2022-09-03T02:55:46.412Z,101518.66
2022-09-03T02:58:14.075Z,101520.75
2022-09-03T03:00:41.544Z,101525.91
2022-09-03T03:03:08.763Z,101515.03
2022-09-03T03:05:49.433Z,101516.19
2022-09-03T03:08:21.522Z,101512.56
2022-09-03T03:10:49.506Z,101521.69
2022-09-03T03:13:16.773Z,101526.25
2022-09-03T03:15:44.518Z,101512.81
2022-09-03T03:18:15.115Z,101509.16
2022-09-03T03:20:43.840Z,101514.91
2022-09-03T03:23:11.583Z,101514.75
2022-09-03T03:25:39.725Z,101517.22
2022-09-03T03:28:07.896Z,101521.75
2022-09-03T03:30:40.180Z,101520.13
2022-09-03T03:33:07.734Z,101523.03
2022-09-03T03:35:35.300Z,101527.59
2022-09-03T03:38:02.397Z,101529.69
2022-09-03T03:40:29.293Z,101522.69
2022-09-03T03:42:58.809Z,101531.56
2022-09-03T03:45:26.157Z,101527.25
2022-09-03T03:47:59.197Z,101534.25
2022-09-03T03:50:26.353Z,101533.44
2022-09-03T03:52:53.383Z,101530.53
2022-09-03T03:55:20.288Z,101529.25
2022-09-03T03:57:47.441Z,101527.59
2022-09-03T04:00:15.700Z,101523.88
2022-09-03T04:02:43.003Z,101528.41
2022-09-03T04:05:10.605Z,101531.91
2022-09-03T04:07:38.404Z,101524.69
2022-09-03T04:10:06.576Z,101530.06
2022-09-03T04:12:33.457Z,101535.66
2022-09-03T04:15:00.667Z,101523.28
2022-09-03T04:17:28.528Z,101526.19
2022-09-03T04:19:55.416Z,101528.06
2022-09-03T04:22:22.422Z,101524.34
2022-09-03T04:24:49.318Z,101525.38
2022-09-03T04:27:16.319Z,101520.47
2022-09-03T04:29:43.228Z,101514.63
2022-09-03T04:32:28.846Z,101512.78
2022-09-03T04:34:55.883Z,101517.09
2022-09-03T04:37:22.852Z,101527.59
2022-09-03T04:39:50.029Z,101526.78
2022-09-03T04:42:16.925Z,101524.09
2022-09-03T04:44:43.939Z,101517.91
2022-09-03T04:47:11.074Z,101519.06
2022-09-03T04:49:40.097Z,101520.13
2022-09-03T04:52:07.063Z,101516.63
2022-09-03T04:54:34.200Z,101520.50
2022-09-03T04:57:01.256Z,101523.19
2022-09-03T04:59:28.376Z,101521.09
2022-09-03T05:01:56.704Z,101523.09
2022-09-03T05:04:23.940Z,101517.94
2022-09-03T05:06:50.980Z,101528.34
2022-09-03T05:09:18.439Z,101530.34
2022-09-03T05:11:45.451Z,101532.91
2022-09-03T05:14:12.691Z,101528.47
2022-09-03T05:16:40.098Z,101525.34
2022-09-03T05:19:08.041Z,101535.97
2022-09-03T05:21:36.328Z,101532.34
2022-09-03T05:24:04.196Z,101534.09
2022-09-03T05:26:37.160Z,101531.25
2022-09-03T05:29:07.745Z,101535.34
2022-09-03T05:31:39.172Z,101541.19
2022-09-03T05:34:07.732Z,101532.16
2022-09-03T05:36:37.561Z,101547.00
2022-09-03T05:39:07.559Z,101542.56
2022-09-03T05:41:34.982Z,101546.97
2022-09-03T05:44:02.395Z,101539.50
2022-09-03T05:46:32.470Z,101536.09
2022-09-03T05:49:05.989Z,101539.47
2022-09-03T05:51:35.482Z,101543.78
2022-09-03T05:54:03.582Z,101537.19
2022-09-03T05:56:33.273Z,101542.72
2022-09-03T05:59:05.557Z,101528.34
2022-09-03T06:01:36.722Z,101541.16
2022-09-03T06:04:08.321Z,101533.03
2022-09-03T06:06:40.911Z,101526.19
2022-09-03T06:09:20.249Z,101528.59
2022-09-03T06:11:50.051Z,101541.66
2022-09-03T06:14:17.548Z,101531.06
2022-09-03T06:16:49.605Z,101538.25
2022-09-03T06:19:17.047Z,101531.16
2022-09-03T06:21:45.594Z,101540.78
2022-09-03T06:24:19.365Z,101529.72
2022-09-03T06:26:47.202Z,101526.34
2022-09-03T06:29:15.105Z,101520.91
2022-09-03T06:31:42.179Z,101531.41
2022-09-03T06:34:09.177Z,101533.59
2022-09-03T06:36:36.119Z,101520.00
2022-09-03T06:39:03.865Z,101521.34
2022-09-03T06:41:33.681Z,101517.22
2022-09-03T06:44:04.918Z,101520.38
2022-09-03T06:46:35.102Z,101526.81
2022-09-03T06:49:02.691Z,101524.28
2022-09-03T06:51:33.020Z,101530.69
2022-09-03T06:54:10.340Z,101530.00
2022-09-03T06:56:40.805Z,101529.34
2022-09-03T06:59:14.230Z,101524.84
2022-09-03T07:01:45.510Z,101510.06
2022-09-03T07:04:16.482Z,101513.69
2022-09-03T07:06:44.291Z,101512.13
2022-09-03T07:09:13.091Z,101510.00
2022-09-03T07:11:48.114Z,101517.63
2022-09-03T07:14:18.873Z,101511.38
2022-09-03T07:16:47.330Z,101508.69
2022-09-03T07:19:14.717Z,101509.47
2022-09-03T07:21:48.325Z,101517.03
2022-09-03T07:24:18.224Z,101509.94
2022-09-03T07:26:46.419Z,101508.81
2022-09-03T07:29:15.709Z,101513.38
2022-09-03T07:31:44.027Z,101514.41
2022-09-03T07:34:13.442Z,101514.03
2022-09-03T07:36:48.872Z,101513.22
2022-09-03T07:39:17.950Z,101503.94
2022-09-03T07:41:46.445Z,101506.31
2022-09-03T07:44:19.865Z,101520.91
2022-09-03T07:46:51.660Z,101513.81
2022-09-03T07:49:20.386Z,101509.91
2022-09-03T07:51:50.516Z,101510.31
2022-09-03T07:54:18.704Z,101519.44
2022-09-03T07:56:45.752Z,101518.59
2022-09-03T07:59:12.849Z,101518.84
2022-09-03T08:01:41.571Z,101511.34
2022-09-03T08:04:09.773Z,101509.59
2022-09-03T08:06:38.165Z,101510.63
2022-09-03T08:09:09.831Z,101516.94
2022-09-03T08:11:39.550Z,101506.97
2022-09-03T08:14:09.761Z,101510.84
2022-09-03T08:16:43.033Z,101501.16
2022-09-03T08:19:11.935Z,101511.56
2022-09-03T08:21:42.078Z,101495.84
2022-09-03T08:24:10.904Z,101500.59
2022-09-03T08:26:44.093Z,101498.59
2022-09-03T08:29:13.367Z,101500.00
2022-09-03T08:31:40.576Z,101492.44
2022-09-03T08:34:08.143Z,101513.09
2022-09-03T08:36:38.384Z,101503.38
2022-09-03T08:39:10.203Z,101502.44
2022-09-03T08:42:18.869Z,101490.56
2022-09-03T08:44:59.848Z,101495.72
2022-09-03T08:47:44.456Z,101484.66
2022-09-03T08:50:34.316Z,101472.78
2022-09-03T08:53:16.232Z,101472.22
2022-09-03T08:55:58.534Z,101464.47
2022-09-03T08:58:35.727Z,101459.88
2022-09-03T09:01:42.531Z,101456.38
2022-09-03T09:04:32.480Z,101446.09
2022-09-03T09:07:12.846Z,101449.91
2022-09-03T09:10:22.946Z,101450.34
2022-09-03T09:12:58.885Z,101452.69
2022-09-03T09:15:41.026Z,101441.34
2022-09-03T09:18:38.296Z,101433.25
2022-09-03T09:21:25.156Z,101427.75
2022-09-03T09:24:03.720Z,101426.88
2022-09-03T09:26:31.696Z,101416.28
2022-09-03T09:29:09.423Z,101408.31
2022-09-03T09:31:40.713Z,101405.84
2022-09-03T09:34:09.134Z,101407.84
2022-09-03T09:36:49.711Z,101403.19
2022-09-03T09:39:16.950Z,101407.97
2022-09-03T09:41:44.768Z,101396.53
2022-09-03T09:44:20.464Z,101391.41
2022-09-03T09:46:52.760Z,101382.09
2022-09-03T09:49:59.615Z,101394.75
2022-09-03T09:52:30.164Z,101379.75
2022-09-03T09:55:19.736Z,101389.53
2022-09-03T09:57:47.747Z,101386.88
2022-09-03T10:00:17.918Z,101386.56
2022-09-03T10:02:56.594Z,101374.69
2022-09-03T10:05:30.638Z,101381.44
2022-09-03T10:08:04.700Z,101372.97
2022-09-03T10:10:39.721Z,101369.22
2022-09-03T10:13:17.689Z,101361.38
2022-09-03T10:16:09.896Z,101350.13
2022-09-03T10:18:45.822Z,101360.41
2022-09-03T10:21:21.094Z,101354.84
2022-09-03T10:23:48.993Z,101341.69
2022-09-03T10:26:21.778Z,101340.28
2022-09-03T10:28:55.933Z,101339.38
2022-09-03T10:32:02.095Z,101344.41
2022-09-03T10:34:38.009Z,101356.63
2022-09-03T10:37:32.162Z,101347.22
2022-09-03T10:40:30.884Z,101342.28
2022-09-03T10:43:33.552Z,101348.13
2022-09-03T10:46:27.291Z,101347.13
2022-09-03T10:49:44.096Z,101347.25
2022-09-03T10:52:28.346Z,101341.34
2022-09-03T10:55:00.256Z,101345.28
2022-09-03T10:57:56.771Z,101339.50
2022-09-03T11:00:24.457Z,101347.13
2022-09-03T11:03:06.333Z,101345.91
2022-09-03T11:05:57.538Z,101350.13
2022-09-03T11:08:31.479Z,101344.69
2022-09-03T11:11:12.825Z,101337.50
2022-09-03T11:13:47.891Z,101344.41
2022-09-03T11:16:21.255Z,101333.69
2022-09-03T11:19:08.401Z,101335.72
2022-09-03T11:21:41.845Z,101335.81
2022-09-03T11:24:19.079Z,101332.97
2022-09-03T11:26:52.787Z,101326.56
2022-09-03T11:29:47.207Z,101319.19
2022-09-03T11:32:43.387Z,101314.25
2022-09-03T11:35:28.406Z,101317.16
2022-09-03T11:38:02.811Z,101313.34
2022-09-03T11:40:56.719Z,101309.03
2022-09-03T11:43:34.387Z,101304.59
2022-09-03T11:46:14.039Z,101309.56
2022-09-03T11:48:44.754Z,101314.69
2022-09-03T11:51:32.406Z,101314.59
2022-09-03T11:54:03.020Z,101307.53
2022-09-03T11:56:32.745Z,101323.31
2022-09-03T11:59:17.716Z,101324.16
2022-09-03T12:01:56.925Z,101320.16
2022-09-03T12:05:15.668Z,101313.63
2022-09-03T12:08:04.143Z,101312.56
2022-09-03T12:10:55.480Z,101307.41
2022-09-03T12:13:46.707Z,101299.34
2022-09-03T12:17:11.250Z,101288.78
2022-09-03T12:19:58.803Z,101301.00
2022-09-03T12:22:30.134Z,101300.97
2022-09-03T12:25:13.183Z,101299.47
2022-09-03T12:27:44.381Z,101307.09
2022-09-03T12:30:22.864Z,101303.56
2022-09-03T12:32:51.202Z,101295.47
2022-09-03T12:38:18.335Z,101288.00
2022-09-03T12:43:42.418Z,101279.72
2022-09-03T12:46:16.357Z,101279.34
2022-09-03T12:51:56.073Z,101268.44
2022-09-03T12:54:25.615Z,101269.84
2022-09-03T12:56:58.855Z,101258.19
2022-09-03T12:59:31.447Z,101267.63
2022-09-03T13:02:07.334Z,101261.97
2022-09-03T13:04:37.197Z,101262.56
2022-09-03T13:07:22.073Z,101259.28
2022-09-03T13:09:49.640Z,101264.09
2022-09-03T13:12:41.965Z,101257.53
2022-09-03T13:15:23.842Z,101258.03
2022-09-03T13:18:02.895Z,101252.97
2022-09-03T13:20:52.253Z,101245.53
2022-09-03T13:23:52.889Z,101227.13
2022-09-03T13:26:34.298Z,101226.81
2022-09-03T13:29:23.237Z,101229.88
2022-09-03T13:32:10.961Z,101208.31
2022-09-03T13:34:57.496Z,101222.28
2022-09-03T13:37:40.884Z,101229.34
2022-09-03T13:40:27.382Z,101212.88
2022-09-03T13:43:18.739Z,101220.66
2022-09-03T13:45:58.214Z,101223.69
2022-09-03T13:48:59.256Z,101216.75
2022-09-03T13:51:38.727Z,101214.25
2022-09-03T13:54:36.291Z,101214.28
2022-09-03T13:57:21.986Z,101219.50
2022-09-03T14:00:09.418Z,101223.50
2022-09-03T14:02:58.066Z,101205.09
2022-09-03T14:05:33.999Z,101205.88
2022-09-03T14:08:21.095Z,101204.97
2022-09-03T14:11:19.687Z,101193.00
2022-09-03T14:14:12.576Z,101209.09
2022-09-03T14:17:05.949Z,101214.31
2022-09-03T14:19:58.593Z,101205.00
2022-09-03T14:23:11.894Z,101202.78
2022-09-03T14:25:43.829Z,101207.06
2022-09-03T14:28:36.298Z,101220.00
2022-09-03T14:31:36.804Z,101208.84
2022-09-03T14:34:50.619Z,101191.66
2022-09-03T14:37:39.844Z,101203.00
2022-09-03T14:40:22.230Z,101206.44
2022-09-03T14:43:14.663Z,101204.03
2022-09-03T14:46:27.668Z,101205.25
2022-09-03T14:49:40.126Z,101211.78
2022-09-03T14:52:33.576Z,101213.63
2022-09-03T14:55:38.325Z,101214.16
2022-09-03T14:58:23.743Z,101209.03
2022-09-03T15:01:13.434Z,101211.94
2022-09-03T15:04:25.570Z,101221.38
2022-09-03T15:07:18.433Z,101208.53
2022-09-03T15:10:42.884Z,101207.03
2022-09-03T15:13:26.153Z,101209.16
2022-09-03T15:16:36.696Z,101215.41
2022-09-03T15:19:42.681Z,101200.97
2022-09-03T15:22:38.121Z,101203.94
2022-09-03T15:25:53.810Z,101206.38
2022-09-03T15:28:42.037Z,101193.56
2022-09-03T15:32:00.155Z,101200.25
2022-09-03T15:34:48.857Z,101201.03
2022-09-03T15:37:48.260Z,101199.38
2022-09-03T15:40:46.223Z,101208.69
2022-09-03T15:43:26.059Z,101206.28
2022-09-03T15:45:58.353Z,101197.97
2022-09-03T15:49:05.124Z,101196.97
2022-09-03T15:51:43.488Z,101199.41
2022-09-03T15:54:27.289Z,101201.16
2022-09-03T15:57:26.870Z,101202.47
2022-09-03T16:00:13.005Z,101204.28
2022-09-03T16:03:09.519Z,101206.97
2022-09-03T16:05:50.898Z,101207.94
2022-09-03T16:09:12.139Z,101208.28
2022-09-03T16:12:10.232Z,101202.00
2022-09-03T16:14:58.104Z,101203.50
2022-09-03T16:17:35.413Z,101201.75
2022-09-03T16:20:10.307Z,101211.00
2022-09-03T16:23:03.726Z,101203.38
2022-09-03T16:25:55.070Z,101207.03
2022-09-03T16:28:49.230Z,101208.72
2022-09-03T16:31:45.188Z,101210.66
2022-09-03T16:34:36.555Z,101213.91
2022-09-03T16:37:24.900Z,101224.16
2022-09-03T16:40:24.462Z,101212.72
2022-09-03T16:43:29.899Z,101226.94
2022-09-03T16:46:25.984Z,101224.59
2022-09-03T16:49:19.246Z,101228.03
2022-09-03T16:52:01.617Z,101229.47
2022-09-03T16:54:55.910Z,101233.66
2022-09-03T16:57:54.653Z,101240.91
2022-09-03T17:00:22.470Z,101239.00
2022-09-03T17:03:07.365Z,101230.97
2022-09-03T17:05:55.589Z,101231.38
2022-09-03T17:08:22.431Z,101228.47
2022-09-03T17:11:00.554Z,101240.44
2022-09-03T17:14:00.647Z,101236.59
2022-09-03T17:16:55.981Z,101239.94
2022-09-03T17:19:51.864Z,101237.50
2022-09-03T17:23:15.187Z,101232.97
2022-09-03T17:26:05.581Z,101240.16
2022-09-03T17:29:15.465Z,101244.72
2022-09-03T17:32:13.776Z,101246.75
2022-09-03T17:35:15.754Z,101254.56
2022-09-03T17:38:02.174Z,101252.63
2022-09-03T17:40:44.888Z,101255.25
2022-09-03T17:43:25.830Z,101254.63
2022-09-03T17:46:34.046Z,101258.94
2022-09-03T17:49:03.644Z,101253.31
2022-09-03T17:51:50.713Z,101267.00
2022-09-03T17:54:23.765Z,101279.47
2022-09-03T17:57:24.830Z,101276.22
2022-09-03T18:00:10.634Z,101280.25
2022-09-03T18:02:54.155Z,101274.81
2022-09-03T18:06:01.932Z,101277.72
2022-09-03T18:08:57.666Z,101293.06
2022-09-03T18:11:48.473Z,101292.69
2022-09-03T18:14:41.093Z,101298.00
2022-09-03T18:17:37.666Z,101292.72
2022-09-03T18:20:30.836Z,101301.88
2022-09-03T18:24:00.910Z,101300.13
2022-09-03T18:26:54.987Z,101301.41
2022-09-03T18:29:56.705Z,101300.16
2022-09-03T18:32:42.077Z,101300.31
2022-09-03T18:35:27.863Z,101308.53
2022-09-03T18:38:13.440Z,101310.81
2022-09-03T18:41:30.442Z,101308.44
2022-09-03T18:45:18.282Z,101321.31
2022-09-03T18:48:46.311Z,101319.25
2022-09-03T18:51:55.035Z,101313.06
2022-09-03T18:55:07.437Z,101310.69
2022-09-03T18:58:35.355Z,101323.28
2022-09-03T19:01:40.126Z,101328.78
2022-09-03T19:05:09.541Z,101322.28
2022-09-03T19:08:25.856Z,101325.91
2022-09-03T19:11:28.615Z,101327.88
2022-09-03T19:14:19.533Z,101326.25
2022-09-03T19:17:25.519Z,101323.81
2022-09-03T19:20:31.573Z,101320.88
2022-09-03T19:23:17.811Z,101321.44
2022-09-03T19:26:03.160Z,101322.88
2022-09-03T19:28:51.825Z,101330.72
2022-09-03T19:32:08.510Z,101338.38
2022-09-03T19:35:38.661Z,101334.63
2022-09-03T19:38:59.394Z,101342.03
2022-09-03T19:42:25.306Z,101347.50
2022-09-03T19:45:30.578Z,101342.66
2022-09-03T19:49:06.505Z,101347.53
2022-09-03T19:52:14.490Z,101346.78
2022-09-03T19:55:00.473Z,101341.38
2022-09-03T19:57:49.941Z,101349.03
2022-09-03T20:00:35.246Z,101350.41
2022-09-03T20:03:21.957Z,101356.13
2022-09-03T20:06:11.284Z,101354.78
2022-09-03T20:08:58.046Z,101361.03
2022-09-03T20:11:28.762Z,101357.00
2022-09-03T20:14:13.431Z,101367.06
2022-09-03T20:17:11.004Z,101363.28
2022-09-03T20:20:13.673Z,101371.72
2022-09-03T20:23:03.754Z,101375.81
2022-09-03T20:26:25.294Z,101373.69
2022-09-03T20:29:21.555Z,101371.28
2022-09-03T20:32:16.261Z,101374.00
2022-09-03T20:35:08.656Z,101373.75
2022-09-03T20:37:44.704Z,101375.94
2022-09-03T20:40:16.679Z,101377.34
2022-09-03T20:43:18.924Z,101376.53
2022-09-03T20:46:19.989Z,101370.81
2022-09-03T20:49:10.411Z,101376.00
2022-09-03T20:51:53.144Z,101377.66
2022-09-03T20:54:32.155Z,101370.59
2022-09-03T20:57:11.290Z,101382.56
2022-09-03T21:00:15.258Z,101380.69
2022-09-03T21:03:05.145Z,101390.75
2022-09-03T21:06:06.793Z,101387.50
2022-09-03T21:08:48.207Z,101385.38
2022-09-03T21:11:30.618Z,101376.16
2022-09-03T21:14:33.692Z,101377.25
2022-09-03T21:17:15.763Z,101388.69
2022-09-03T21:20:00.659Z,101391.16
2022-09-03T21:22:48.880Z,101387.63
2022-09-03T21:25:21.065Z,101383.00
2022-09-03T21:27:55.261Z,101383.28
2022-09-03T21:30:22.601Z,101383.03
2022-09-03T21:33:27.289Z,101393.06
2022-09-03T21:36:12.537Z,101390.66
2022-09-03T21:38:50.894Z,101395.84
2022-09-03T21:41:28.360Z,101392.59
2022-09-03T21:44:05.376Z,101397.47
2022-09-03T21:46:42.308Z,101413.25
2022-09-03T21:49:12.462Z,101407.28
2022-09-03T21:51:56.581Z,101404.56
2022-09-03T21:54:33.604Z,101416.50
2022-09-03T21:57:22.251Z,101405.66
2022-09-03T22:00:20.491Z,101410.56
2022-09-03T22:02:49.844Z,101411.66
2022-09-03T22:05:18.411Z,101417.91
2022-09-03T22:08:17.526Z,101418.19
2022-09-03T22:10:57.440Z,101419.31
2022-09-03T22:13:45.687Z,101417.13
2022-09-03T22:16:31.556Z,101425.84
2022-09-03T22:18:59.581Z,101425.56
2022-09-03T22:21:59.472Z,101432.59
2022-09-03T22:25:05.134Z,101426.09
2022-09-03T22:28:03.056Z,101426.94
2022-09-03T22:30:51.876Z,101430.75
2022-09-03T22:33:34.881Z,101429.38
2022-09-03T22:36:07.624Z,101441.63
2022-09-03T22:38:58.878Z,101433.75
2022-09-03T22:41:38.226Z,101441.09
2022-09-03T22:44:25.087Z,101445.44
2022-09-03T22:47:11.426Z,101444.38
2022-09-03T22:49:49.286Z,101441.66
2022-09-03T22:53:05.565Z,101439.50
2022-09-03T22:55:35.211Z,101435.72
2022-09-03T22:58:22.284Z,101444.94
2022-09-03T23:01:16.703Z,101451.19
2022-09-03T23:04:22.664Z,101455.78
2022-09-03T23:07:22.742Z,101454.16
2022-09-03T23:10:05.877Z,101471.53
2022-09-03T23:12:53.505Z,101462.81
2022-09-03T23:15:29.322Z,101462.00
2022-09-03T23:18:09.941Z,101463.63
2022-09-03T23:20:41.728Z,101460.66
2022-09-03T23:23:40.723Z,101456.84
2022-09-03T23:26:44.669Z,101457.94
2022-09-03T23:29:30.820Z,101459.28
2022-09-03T23:31:59.432Z,101467.13
2022-09-03T23:34:27.820Z,101464.44
2022-09-03T23:37:33.149Z,101466.06
2022-09-03T23:40:15.384Z,101469.00
2022-09-03T23:43:23.157Z,101468.44
2022-09-03T23:46:36.260Z,101481.16
2022-09-03T23:49:21.010Z,101468.41
2022-09-03T23:52:08.074Z,101465.16
2022-09-03T23:54:46.542Z,101475.69
2022-09-03T23:57:38.271Z,101481.09
